createdAt,value
2019-05-17T00:02:08.240Z,20.30
2019-05-17T00:04:37.248Z,21.60
2019-05-17T00:07:06.671Z,24.13
2019-05-17T00:09:37.394Z,24.37
2019-05-17T00:12:07.537Z,23.00
2019-05-17T00:14:36.730Z,25.57
2019-05-17T00:17:06.660Z,23.60
2019-05-17T00:19:36.938Z,24.30
2019-05-17T00:22:07.286Z,22.93
2019-05-17T00:24:37.081Z,20.90
2019-05-17T00:27:06.782Z,21.13
2019-05-17T00:29:37.144Z,21.40
2019-05-17T00:32:06.404Z,20.93
2019-05-17T00:34:37.662Z,22.77
2019-05-17T00:37:07.154Z,22.70
2019-05-17T00:39:37.340Z,22.87
2019-05-17T00:42:06.984Z,22.73
2019-05-17T00:44:36.635Z,21.80
2019-05-17T00:47:06.579Z,22.53
2019-05-17T00:49:37.240Z,22.87
2019-05-17T00:52:07.198Z,22.10
2019-05-17T00:54:36.701Z,22.63
2019-05-17T00:57:07.557Z,22.33
2019-05-17T00:59:36.947Z,23.23
2019-05-17T01:02:07.034Z,22.47
2019-05-17T01:04:36.843Z,22.63
2019-05-17T01:07:07.046Z,21.03
2019-05-17T01:09:36.668Z,22.33
2019-05-17T01:12:07.086Z,20.30
2019-05-17T01:14:37.212Z,21.73
2019-05-17T01:17:07.178Z,21.90
2019-05-17T01:19:36.601Z,23.20
2019-05-17T01:22:07.515Z,22.30
2019-05-17T01:24:36.831Z,21.10
2019-05-17T01:27:06.515Z,21.57
2019-05-17T01:29:36.309Z,23.10
2019-05-17T01:32:06.723Z,20.60
2019-05-17T01:34:37.596Z,21.20
2019-05-17T01:37:06.636Z,23.07
2019-05-17T01:39:37.494Z,23.10
2019-05-17T01:42:06.806Z,25.50
2019-05-17T01:44:36.734Z,23.10
2019-05-17T01:47:07.378Z,23.77
2019-05-17T01:49:36.479Z,22.83
2019-05-17T01:52:07.311Z,23.17
2019-05-17T01:54:36.260Z,24.53
2019-05-17T01:57:07.377Z,23.37
2019-05-17T01:59:37.266Z,22.43
2019-05-17T02:02:09.270Z,23.10
2019-05-17T02:04:38.454Z,22.50
2019-05-17T02:07:07.529Z,21.50
2019-05-17T02:09:40.704Z,21.77
2019-05-17T02:12:06.823Z,21.70
2019-05-17T02:14:37.429Z,22.40
2019-05-17T02:17:06.841Z,21.17
2019-05-17T02:19:37.177Z,21.97
2019-05-17T02:22:07.449Z,22.63
2019-05-17T02:24:37.093Z,21.30
2019-05-17T02:27:05.979Z,23.03
2019-05-17T02:29:34.707Z,20.60
2019-05-17T02:32:04.071Z,23.37
2019-05-17T02:34:33.710Z,22.10
2019-05-17T02:37:03.179Z,24.23
2019-05-17T02:39:32.757Z,22.90
2019-05-17T02:42:02.807Z,20.37
2019-05-17T02:44:33.493Z,22.37
2019-05-17T02:47:03.341Z,20.80
2019-05-17T02:49:33.312Z,21.97
2019-05-17T02:52:03.278Z,18.50
2019-05-17T02:54:32.957Z,19.97
2019-05-17T02:57:03.053Z,22.23
2019-05-17T02:59:33.292Z,20.70
2019-05-17T03:02:03.578Z,22.00
2019-05-17T03:04:32.842Z,21.57
2019-05-17T03:07:03.784Z,19.60
2019-05-17T03:09:33.556Z,23.27
2019-05-17T03:12:03.586Z,20.50
2019-05-17T03:14:33.188Z,20.70
2019-05-17T03:17:06.110Z,21.00
2019-05-17T03:19:34.833Z,21.00
2019-05-17T03:22:07.427Z,22.90
2019-05-17T03:24:34.168Z,19.90
2019-05-17T03:27:03.378Z,18.87
2019-05-17T03:29:33.542Z,18.17
2019-05-17T03:32:17.626Z,19.50
2019-05-17T03:34:47.793Z,17.57
2019-05-17T03:37:16.800Z,17.83
2019-05-17T03:39:45.761Z,20.00
2019-05-17T03:42:15.039Z,19.23
2019-05-17T03:44:43.945Z,18.23
2019-05-17T03:47:13.408Z,20.90
2019-05-17T03:49:43.661Z,19.30
2019-05-17T03:52:13.554Z,18.80
2019-05-17T03:54:43.313Z,18.23
2019-05-17T03:57:13.431Z,17.73
2019-05-17T03:59:43.063Z,18.93
2019-05-17T04:02:12.510Z,34.20
2019-05-17T04:04:42.883Z,19.30
2019-05-17T04:07:12.722Z,21.27
2019-05-17T04:09:43.773Z,19.30
2019-05-17T04:12:13.796Z,18.77
2019-05-17T04:14:43.161Z,21.10
2019-05-17T04:17:13.068Z,23.43
2019-05-17T04:19:42.673Z,22.90
2019-05-17T04:22:13.823Z,25.10
2019-05-17T04:24:43.782Z,22.97
2019-05-17T04:27:13.555Z,35.10
2019-05-17T04:29:42.675Z,24.33
2019-05-17T04:32:13.004Z,23.43
2019-05-17T04:34:43.654Z,26.00
2019-05-17T04:37:13.058Z,23.57
2019-05-17T04:39:43.179Z,24.53
2019-05-17T04:42:13.621Z,25.67
2019-05-17T04:44:43.131Z,23.70
2019-05-17T04:47:13.379Z,25.20
2019-05-17T04:49:44.087Z,22.93
2019-05-17T04:52:13.919Z,20.67
2019-05-17T04:54:42.961Z,23.37
2019-05-17T04:57:13.120Z,24.20
2019-05-17T04:59:43.375Z,20.60
2019-05-17T05:02:13.295Z,22.47
2019-05-17T05:04:43.879Z,20.77
2019-05-17T05:07:13.742Z,23.87
2019-05-17T05:09:43.169Z,23.90
2019-05-17T05:12:12.619Z,23.83
2019-05-17T05:14:43.154Z,24.47
2019-05-17T05:17:12.800Z,25.10
2019-05-17T05:19:42.375Z,26.00
2019-05-17T05:22:13.549Z,26.27
2019-05-17T05:24:42.432Z,27.77
2019-05-17T05:27:11.668Z,27.90
2019-05-17T05:29:41.634Z,28.27
2019-05-17T05:32:11.814Z,27.87
2019-05-17T05:34:42.769Z,31.67
2019-05-17T05:37:12.583Z,27.70
2019-05-17T05:39:41.551Z,28.60
2019-05-17T05:42:13.380Z,30.30
2019-05-17T05:44:41.535Z,28.03
2019-05-17T05:47:11.611Z,27.10
2019-05-17T05:49:42.464Z,26.80
2019-05-17T05:52:12.536Z,28.17
2019-05-17T05:54:41.465Z,28.47
2019-05-17T05:57:12.465Z,27.10
2019-05-17T05:59:42.603Z,28.80
2019-05-17T06:02:12.357Z,28.50
2019-05-17T06:04:42.458Z,29.13
2019-05-17T06:07:12.855Z,29.90
2019-05-17T06:09:42.446Z,29.50
2019-05-17T06:12:23.387Z,30.27
2019-05-17T06:14:41.902Z,32.30
2019-05-17T06:17:12.596Z,29.83
2019-05-17T06:19:42.203Z,30.07
2019-05-17T06:22:12.007Z,28.60
2019-05-17T06:24:42.554Z,28.10
2019-05-17T06:27:12.336Z,28.47
2019-05-17T06:29:41.658Z,30.97
2019-05-17T06:32:11.902Z,32.50
2019-05-17T06:34:42.251Z,32.47
2019-05-17T06:37:12.930Z,32.73
2019-05-17T06:39:42.083Z,31.70
2019-05-17T06:42:12.100Z,31.87
2019-05-17T06:44:41.739Z,32.40
2019-05-17T06:47:11.903Z,31.30
2019-05-17T06:49:42.371Z,31.50
2019-05-17T06:52:11.757Z,31.73
2019-05-17T06:54:41.793Z,32.87
2019-05-17T06:57:12.857Z,34.57
2019-05-17T06:59:41.473Z,33.13
2019-05-17T07:02:10.546Z,39.87
2019-05-17T07:04:39.574Z,34.90
2019-05-17T07:07:40.540Z,32.37
2019-05-17T07:10:11.166Z,34.00
2019-05-17T07:12:54.614Z,33.40
2019-05-17T07:15:11.441Z,99.73
2019-05-17T07:17:40.693Z,34.60
2019-05-17T07:20:10.659Z,33.97
2019-05-17T07:22:40.703Z,31.20
2019-05-17T07:25:11.356Z,33.43
2019-05-17T07:27:45.322Z,45.73
2019-05-17T07:30:12.914Z,34.57
2019-05-17T07:32:41.709Z,35.00
2019-05-17T07:35:11.232Z,36.90
2019-05-17T07:37:40.219Z,31.87
2019-05-17T07:40:10.719Z,33.17
2019-05-17T07:42:40.120Z,33.90
2019-05-17T07:45:10.151Z,32.10
2019-05-17T07:47:40.391Z,33.17
2019-05-17T07:50:11.387Z,32.80
2019-05-17T07:52:40.655Z,34.50
2019-05-17T07:55:10.853Z,33.53
2019-05-17T07:57:41.221Z,32.77
2019-05-17T08:00:10.923Z,33.03
2019-05-17T08:02:40.402Z,32.20
2019-05-17T08:05:10.443Z,31.30
2019-05-17T08:07:40.817Z,32.13
2019-05-17T08:10:11.240Z,32.43
2019-05-17T08:12:41.121Z,33.23
2019-05-17T08:15:11.197Z,34.13
2019-05-17T08:17:40.339Z,30.47
2019-05-17T08:20:10.056Z,32.50
2019-05-17T08:22:40.102Z,31.20
2019-05-17T08:25:10.337Z,32.43
2019-05-17T08:27:40.529Z,31.47
2019-05-17T08:30:10.837Z,29.70
2019-05-17T08:32:40.330Z,31.20
2019-05-17T08:35:11.234Z,32.73
2019-05-17T08:37:42.461Z,30.17
2019-05-17T08:40:11.086Z,30.20
2019-05-17T08:42:40.628Z,30.07
2019-05-17T08:45:10.367Z,30.80
2019-05-17T08:47:39.844Z,33.50
2019-05-17T08:50:11.302Z,31.43
2019-05-17T08:52:40.526Z,31.10
2019-05-17T08:55:10.156Z,30.30
2019-05-17T08:57:39.967Z,36.33
2019-05-17T09:00:10.624Z,30.93
2019-05-17T09:02:40.934Z,30.57
2019-05-17T09:05:10.546Z,29.53
2019-05-17T09:07:40.243Z,28.43
2019-05-17T09:10:10.221Z,28.80
2019-05-17T09:12:40.992Z,30.20
2019-05-17T09:15:10.013Z,29.23
2019-05-17T09:17:39.607Z,27.73
2019-05-17T09:20:10.697Z,28.90
2019-05-17T09:22:39.617Z,28.13
2019-05-17T09:25:15.019Z,29.00
2019-05-17T09:27:39.655Z,29.07
2019-05-17T09:30:09.622Z,31.43
2019-05-17T09:32:40.497Z,29.30
2019-05-17T09:35:10.030Z,27.57
2019-05-17T09:37:41.545Z,29.23
2019-05-17T09:40:09.570Z,28.67
2019-05-17T09:42:41.118Z,29.43
2019-05-17T09:45:09.823Z,34.10
2019-05-17T09:47:39.853Z,29.00
2019-05-17T09:50:09.915Z,29.70
2019-05-17T09:52:40.922Z,29.87
2019-05-17T09:55:10.262Z,27.83
2019-05-17T09:57:40.792Z,29.53
2019-05-17T10:00:10.860Z,28.03
2019-05-17T10:02:40.298Z,28.20
2019-05-17T10:05:10.754Z,26.10
2019-05-17T10:07:40.473Z,28.57
2019-05-17T10:10:10.754Z,28.30
2019-05-17T10:12:40.557Z,28.13
2019-05-17T10:15:10.336Z,26.93
2019-05-17T10:17:39.163Z,29.17
2019-05-17T10:20:10.774Z,27.63
2019-05-17T10:22:40.067Z,27.47
2019-05-17T10:25:09.831Z,27.73
2019-05-17T10:27:40.745Z,25.80
2019-05-17T10:30:11.624Z,27.70
2019-05-17T10:32:41.296Z,27.53
2019-05-17T10:35:10.361Z,27.03
2019-05-17T10:37:40.617Z,27.80
2019-05-17T10:40:10.902Z,27.43
2019-05-17T10:42:39.988Z,26.57
2019-05-17T10:45:11.025Z,28.20
2019-05-17T10:47:40.109Z,26.47
2019-05-17T10:50:10.919Z,27.63
2019-05-17T10:52:40.940Z,26.43
2019-05-17T10:55:10.981Z,27.43
2019-05-17T10:57:40.069Z,28.00
2019-05-17T11:00:11.580Z,26.37
2019-05-17T11:02:40.332Z,27.47
2019-05-17T11:05:10.563Z,27.40
2019-05-17T11:07:39.862Z,26.37
2019-05-17T11:10:11.799Z,27.30
2019-05-17T11:12:39.970Z,27.73
2019-05-17T11:15:11.363Z,28.87
2019-05-17T11:17:39.499Z,26.67
2019-05-17T11:20:10.257Z,26.57
2019-05-17T11:22:39.384Z,27.80
2019-05-17T11:25:09.054Z,28.43
2019-05-17T11:27:38.225Z,26.43
2019-05-17T11:30:07.818Z,27.20
2019-05-17T11:32:36.604Z,27.17
2019-05-17T11:35:05.971Z,28.43
2019-05-17T11:37:34.819Z,28.50
2019-05-17T11:40:03.694Z,29.70
2019-05-17T11:42:32.488Z,27.23
2019-05-17T11:45:01.254Z,27.67
2019-05-17T11:47:30.063Z,29.37
2019-05-17T11:49:58.867Z,31.10
2019-05-17T11:52:27.924Z,30.47
2019-05-17T11:54:56.882Z,29.70
2019-05-17T11:57:25.638Z,29.43
2019-05-17T11:59:54.346Z,29.27
2019-05-17T12:02:23.100Z,29.70
2019-05-17T12:04:51.862Z,28.63
2019-05-17T12:07:20.737Z,30.27
2019-05-17T12:09:49.553Z,29.93
2019-05-17T12:12:18.765Z,29.20
2019-05-17T12:14:47.616Z,28.07
2019-05-17T12:17:16.502Z,28.67
2019-05-17T12:19:45.316Z,28.40
2019-05-17T12:22:14.748Z,28.97
2019-05-17T12:24:43.490Z,29.73
2019-05-17T12:27:12.359Z,29.13
2019-05-17T12:29:41.109Z,28.77
2019-05-17T12:32:15.948Z,28.77
2019-05-17T12:34:40.042Z,28.30
2019-05-17T12:37:08.705Z,28.40
2019-05-17T12:39:37.199Z,29.07
2019-05-17T12:42:06.472Z,30.20
2019-05-17T12:44:37.344Z,29.80
2019-05-17T12:47:06.409Z,28.33
2019-05-17T12:49:35.272Z,30.70
2019-05-17T12:52:04.158Z,29.63
2019-05-17T12:54:33.189Z,29.53
2019-05-17T12:57:04.600Z,30.37
2019-05-17T12:59:32.447Z,30.30
2019-05-17T13:02:01.230Z,31.20
2019-05-17T13:04:30.618Z,31.50
2019-05-17T13:06:59.478Z,31.30
2019-05-17T13:09:28.228Z,31.30
2019-05-17T13:11:57.528Z,31.07
2019-05-17T13:14:26.285Z,28.77
2019-05-17T13:16:55.144Z,31.37
2019-05-17T13:19:25.400Z,30.77
2019-05-17T13:21:54.780Z,29.93
2019-05-17T13:24:23.832Z,36.10
2019-05-17T13:26:53.000Z,30.60
2019-05-17T13:29:21.751Z,33.20
2019-05-17T13:31:50.903Z,29.90
2019-05-17T13:34:19.959Z,31.33
2019-05-17T13:36:48.920Z,29.77
2019-05-17T13:39:17.777Z,30.30
2019-05-17T13:41:46.616Z,30.73
2019-05-17T13:44:15.490Z,32.17
2019-05-17T13:46:44.385Z,31.27
2019-05-17T13:49:13.343Z,32.33
2019-05-17T13:51:42.238Z,30.10
2019-05-17T13:54:12.296Z,30.60
2019-05-17T13:56:41.689Z,28.90
2019-05-17T13:59:10.634Z,32.93
2019-05-17T14:01:39.622Z,31.60
2019-05-17T14:04:08.829Z,32.07
2019-05-17T14:06:37.898Z,31.63
2019-05-17T14:09:07.410Z,31.83
2019-05-17T14:11:36.229Z,31.70
2019-05-17T14:14:05.459Z,31.33
2019-05-17T14:16:34.876Z,31.60
2019-05-17T14:19:03.980Z,30.10
2019-05-17T14:21:33.115Z,33.10
2019-05-17T14:24:03.697Z,31.90
2019-05-17T14:26:32.511Z,31.00
2019-05-17T14:29:01.446Z,31.87
2019-05-17T14:31:31.263Z,31.87
2019-05-17T14:34:00.105Z,31.43
2019-05-17T14:36:28.920Z,31.50
2019-05-17T14:38:58.022Z,31.17
2019-05-17T14:41:27.133Z,32.93
2019-05-17T14:43:56.319Z,31.90
2019-05-17T14:46:25.073Z,32.10
2019-05-17T14:48:54.367Z,31.67
2019-05-17T14:51:23.612Z,33.37
2019-05-17T14:53:52.969Z,31.00
2019-05-17T14:56:21.915Z,32.40
2019-05-17T14:58:51.324Z,31.87
2019-05-17T15:01:20.399Z,32.07
2019-05-17T15:03:49.166Z,31.77
2019-05-17T15:06:18.223Z,32.97
2019-05-17T15:08:47.597Z,32.83
2019-05-17T15:11:16.364Z,33.63
2019-05-17T15:13:45.379Z,32.77
2019-05-17T15:16:14.461Z,33.10
2019-05-17T15:18:43.283Z,31.40
2019-05-17T15:21:12.064Z,33.10
2019-05-17T15:23:41.397Z,31.70
2019-05-17T15:26:10.138Z,31.67
2019-05-17T15:28:39.178Z,32.83
2019-05-17T15:31:08.595Z,32.37
2019-05-17T15:33:38.151Z,32.40
2019-05-17T15:36:07.520Z,31.90
2019-05-17T15:38:36.750Z,31.40
2019-05-17T15:41:05.993Z,30.13
2019-05-17T15:43:35.125Z,31.47
2019-05-17T15:46:03.931Z,31.00
2019-05-17T15:48:32.843Z,31.90
2019-05-17T15:51:01.906Z,30.77
2019-05-17T15:53:31.369Z,30.60
2019-05-17T15:56:00.768Z,30.33
2019-05-17T15:58:30.240Z,30.80
2019-05-17T16:00:59.124Z,30.47
2019-05-17T16:03:28.694Z,30.60
2019-05-17T16:05:58.052Z,31.43
2019-05-17T16:08:29.677Z,31.50
2019-05-17T16:10:57.854Z,31.33
2019-05-17T16:13:26.756Z,30.90
2019-05-17T16:15:55.561Z,31.10
2019-05-17T16:18:24.857Z,30.67
2019-05-17T16:20:53.987Z,31.20
2019-05-17T16:23:23.989Z,31.90
2019-05-17T16:25:53.236Z,28.67
2019-05-17T16:28:22.340Z,28.93
2019-05-17T16:30:51.219Z,28.30
2019-05-17T16:33:20.138Z,28.67
2019-05-17T16:35:49.821Z,28.73
2019-05-17T16:38:18.658Z,28.27
2019-05-17T16:40:48.087Z,29.73
2019-05-17T16:43:18.628Z,27.67
2019-05-17T16:45:47.752Z,27.80
2019-05-17T16:48:16.963Z,28.20
2019-05-17T16:50:45.953Z,29.30
2019-05-17T16:53:15.092Z,29.40
2019-05-17T16:55:44.613Z,28.53
2019-05-17T16:58:14.386Z,29.60
2019-05-17T17:00:43.999Z,30.00
2019-05-17T17:03:13.304Z,28.77
2019-05-17T17:05:42.459Z,28.87
2019-05-17T17:08:11.302Z,28.10
2019-05-17T17:10:40.143Z,27.90
2019-05-17T17:13:08.962Z,27.10
2019-05-17T17:15:37.845Z,26.90
2019-05-17T17:18:06.728Z,25.80
2019-05-17T17:20:35.598Z,26.57
2019-05-17T17:23:04.718Z,27.83
2019-05-17T17:25:33.971Z,26.47
2019-05-17T17:28:05.879Z,27.17
2019-05-17T17:30:33.249Z,27.20
2019-05-17T17:33:02.065Z,27.03
2019-05-17T17:35:30.892Z,25.60
2019-05-17T17:37:59.712Z,26.30
2019-05-17T17:40:28.964Z,26.93
2019-05-17T17:42:57.804Z,27.33
2019-05-17T17:45:27.085Z,25.80
2019-05-17T17:47:56.983Z,25.80
2019-05-17T17:50:27.046Z,26.43
2019-05-17T17:52:55.987Z,26.80
2019-05-17T17:55:24.787Z,27.17
2019-05-17T17:57:53.624Z,26.33
2019-05-17T18:00:22.516Z,27.30
2019-05-17T18:02:51.416Z,26.07
2019-05-17T18:05:20.541Z,26.70
2019-05-17T18:07:50.047Z,25.77
2019-05-17T18:10:27.591Z,26.53
2019-05-17T18:12:56.769Z,26.80
2019-05-17T18:15:35.949Z,28.10
2019-05-17T18:18:04.892Z,26.77
2019-05-17T18:20:34.335Z,27.90
2019-05-17T18:23:03.217Z,27.30
2019-05-17T18:25:32.167Z,27.83
2019-05-17T18:28:00.966Z,27.83
2019-05-17T18:30:29.808Z,27.60
2019-05-17T18:32:58.834Z,26.93
2019-05-17T18:35:27.923Z,30.20
2019-05-17T18:37:57.474Z,28.10
2019-05-17T18:40:26.912Z,28.30
2019-05-17T18:42:55.696Z,28.87
2019-05-17T18:45:25.120Z,29.07
2019-05-17T18:47:54.948Z,27.33
2019-05-17T18:50:24.228Z,27.07
2019-05-17T18:52:53.443Z,27.20
2019-05-17T18:55:22.365Z,29.70
2019-05-17T18:57:51.905Z,28.43
2019-05-17T19:00:21.007Z,28.67
2019-05-17T19:02:49.804Z,27.43
2019-05-17T19:05:19.279Z,26.97
2019-05-17T19:07:48.304Z,27.97
2019-05-17T19:10:17.430Z,28.37
2019-05-17T19:12:46.313Z,27.90
2019-05-17T19:15:16.911Z,28.40
2019-05-17T19:17:46.031Z,29.07
2019-05-17T19:20:16.480Z,27.87
2019-05-17T19:22:45.500Z,30.83
2019-05-17T19:25:16.266Z,28.80
2019-05-17T19:27:45.091Z,30.00
2019-05-17T19:30:14.489Z,29.30
2019-05-17T19:32:43.215Z,28.30
2019-05-17T19:35:12.385Z,28.43
2019-05-17T19:37:41.098Z,26.57
2019-05-17T19:40:10.859Z,28.40
2019-05-17T19:42:39.651Z,27.17
2019-05-17T19:45:08.903Z,26.77
2019-05-17T19:47:37.820Z,27.27
2019-05-17T19:50:08.617Z,27.67
2019-05-17T19:52:37.455Z,27.13
2019-05-17T19:55:07.984Z,27.60
2019-05-17T19:57:36.880Z,26.90
2019-05-17T20:00:05.983Z,25.87
2019-05-17T20:02:34.775Z,26.10
2019-05-17T20:05:03.712Z,26.63
2019-05-17T20:07:38.074Z,27.27
2019-05-17T20:10:03.046Z,27.60
2019-05-17T20:12:31.835Z,26.23
2019-05-17T20:15:15.941Z,27.70
2019-05-17T20:17:31.128Z,29.33
2019-05-17T20:20:00.230Z,27.97
2019-05-17T20:22:29.020Z,28.57
2019-05-17T20:24:58.182Z,27.80
2019-05-17T20:27:26.989Z,28.70
2019-05-17T20:29:55.735Z,30.13
2019-05-17T20:32:24.455Z,28.57
2019-05-17T20:34:53.309Z,27.63
2019-05-17T20:37:22.161Z,26.90
2019-05-17T20:39:51.247Z,27.13
2019-05-17T20:42:20.135Z,28.60
2019-05-17T20:44:48.963Z,27.80
2019-05-17T20:47:18.018Z,27.63
2019-05-17T20:49:47.113Z,27.70
2019-05-17T20:52:16.418Z,27.80
2019-05-17T20:54:45.693Z,28.97
2019-05-17T20:57:14.521Z,28.80
2019-05-17T20:59:43.295Z,28.13
2019-05-17T21:02:12.096Z,28.03
2019-05-17T21:04:41.568Z,28.53
2019-05-17T21:07:10.527Z,28.30
2019-05-17T21:09:39.806Z,28.07
2019-05-17T21:12:09.011Z,28.50
2019-05-17T21:14:38.068Z,28.37
2019-05-17T21:17:06.911Z,27.03
2019-05-17T21:19:36.055Z,29.27
2019-05-17T21:22:04.967Z,28.73
2019-05-17T21:24:33.852Z,27.57
2019-05-17T21:27:03.221Z,27.70
2019-05-17T21:29:32.414Z,27.17
2019-05-17T21:32:01.218Z,26.30
2019-05-17T21:34:30.343Z,27.50
2019-05-17T21:36:59.095Z,27.47
2019-05-17T21:39:27.948Z,26.90
2019-05-17T21:41:56.700Z,27.37
2019-05-17T21:44:25.727Z,26.07
2019-05-17T21:47:04.208Z,25.17
2019-05-17T21:49:25.161Z,28.20
2019-05-17T21:51:54.263Z,27.93
2019-05-17T21:54:23.221Z,25.93
2019-05-17T21:56:52.020Z,26.33
2019-05-17T21:59:20.990Z,25.37
2019-05-17T22:01:49.871Z,25.70
2019-05-17T22:04:18.670Z,26.20
2019-05-17T22:06:47.529Z,27.00
2019-05-17T22:09:16.724Z,26.77
2019-05-17T22:11:47.695Z,25.97
2019-05-17T22:14:16.820Z,26.20
2019-05-17T22:16:45.648Z,26.53
2019-05-17T22:19:14.351Z,25.27
2019-05-17T22:21:43.079Z,26.27
2019-05-17T22:24:11.835Z,24.70
2019-05-17T22:26:41.187Z,25.33
2019-05-17T22:29:09.906Z,26.03
2019-05-17T22:31:39.735Z,26.07
2019-05-17T22:34:08.570Z,24.77
2019-05-17T22:36:37.478Z,24.80
2019-05-17T22:39:07.151Z,24.37
2019-05-17T22:41:36.213Z,24.43
2019-05-17T22:44:04.931Z,24.07
2019-05-17T22:46:36.407Z,24.30
2019-05-17T22:49:04.424Z,24.37
2019-05-17T22:51:33.472Z,24.57
2019-05-17T22:54:02.296Z,24.17
2019-05-17T22:56:31.123Z,24.60
2019-05-17T22:58:59.907Z,25.00
2019-05-17T23:01:28.776Z,23.93
2019-05-17T23:03:57.821Z,23.20
2019-05-17T23:06:26.667Z,22.50
2019-05-17T23:08:55.870Z,23.77
2019-05-17T23:11:24.865Z,24.17
2019-05-17T23:13:53.626Z,23.30
2019-05-17T23:16:22.446Z,23.20
2019-05-17T23:19:10.348Z,23.90
2019-05-17T23:21:39.529Z,24.50
2019-05-17T23:24:08.333Z,22.50
2019-05-17T23:26:37.155Z,25.10
2019-05-17T23:29:05.948Z,24.23
2019-05-17T23:31:34.656Z,23.40
2019-05-17T23:34:03.385Z,24.00
2019-05-17T23:36:32.126Z,23.37
2019-05-17T23:39:01.015Z,24.03
2019-05-17T23:41:29.749Z,23.13
2019-05-17T23:43:58.797Z,24.53
2019-05-17T23:46:27.917Z,23.00
2019-05-17T23:48:56.700Z,22.73
2019-05-17T23:51:25.493Z,23.30
2019-05-17T23:53:54.697Z,22.03
2019-05-17T23:56:23.484Z,22.73
2019-05-17T23:58:52.250Z,23.07
